sensor_id;sensor_type;location;lat;lon;timestamp;temperature;humidity
66213;SHT31;53015;50.046;8.238;2023-02-22T00:00:23;5.45;92.39
66213;SHT31;53015;50.046;8.238;2023-02-22T00:02:49;5.32;92.27
66213;SHT31;53015;50.046;8.238;2023-02-22T00:05:15;5.35;91.96
66213;SHT31;53015;50.046;8.238;2023-02-22T00:07:41;5.32;92.09
66213;SHT31;53015;50.046;8.238;2023-02-22T00:10:07;5.30;92.29
66213;SHT31;53015;50.046;8.238;2023-02-22T00:12:33;5.32;92.45
66213;SHT31;53015;50.046;8.238;2023-02-22T00:14:58;5.34;91.73
66213;SHT31;53015;50.046;8.238;2023-02-22T00:17:24;5.32;91.90
66213;SHT31;53015;50.046;8.238;2023-02-22T00:19:49;5.41;92.16
66213;SHT31;53015;50.046;8.238;2023-02-22T00:22:15;5.22;92.28
66213;SHT31;53015;50.046;8.238;2023-02-22T00:24:40;5.15;93.13
66213;SHT31;53015;50.046;8.238;2023-02-22T00:27:06;5.32;92.08
66213;SHT31;53015;50.046;8.238;2023-02-22T00:29:32;5.28;92.05
66213;SHT31;53015;50.046;8.238;2023-02-22T00:31:57;5.39;91.55
66213;SHT31;53015;50.046;8.238;2023-02-22T00:34:23;5.31;91.63
66213;SHT31;53015;50.046;8.238;2023-02-22T00:36:49;5.24;91.54
66213;SHT31;53015;50.046;8.238;2023-02-22T00:39:14;5.18;91.72
66213;SHT31;53015;50.046;8.238;2023-02-22T00:41:40;5.15;91.67
66213;SHT31;53015;50.046;8.238;2023-02-22T00:44:06;5.21;91.72
66213;SHT31;53015;50.046;8.238;2023-02-22T00:46:32;5.24;91.63
66213;SHT31;53015;50.046;8.238;2023-02-22T00:48:57;5.14;91.83
66213;SHT31;53015;50.046;8.238;2023-02-22T00:51:24;5.25;91.51
66213;SHT31;53015;50.046;8.238;2023-02-22T00:53:50;5.04;91.64
66213;SHT31;53015;50.046;8.238;2023-02-22T00:56:16;4.98;92.10
66213;SHT31;53015;50.046;8.238;2023-02-22T00:58:41;4.94;92.17
66213;SHT31;53015;50.046;8.238;2023-02-22T01:01:07;4.84;92.06
66213;SHT31;53015;50.046;8.238;2023-02-22T01:03:33;4.85;91.85
66213;SHT31;53015;50.046;8.238;2023-02-22T01:05:58;4.83;92.01
66213;SHT31;53015;50.046;8.238;2023-02-22T01:08:24;4.87;91.89
66213;SHT31;53015;50.046;8.238;2023-02-22T01:10:49;4.80;91.69
66213;SHT31;53015;50.046;8.238;2023-02-22T01:13:15;4.70;91.94
66213;SHT31;53015;50.046;8.238;2023-02-22T01:15:41;4.63;92.04
66213;SHT31;53015;50.046;8.238;2023-02-22T01:18:08;4.69;92.20
66213;SHT31;53015;50.046;8.238;2023-02-22T01:20:33;4.66;92.12
66213;SHT31;53015;50.046;8.238;2023-02-22T01:23:01;4.72;91.93
66213;SHT31;53015;50.046;8.238;2023-02-22T01:25:29;4.62;92.15
66213;SHT31;53015;50.046;8.238;2023-02-22T01:27:55;4.84;91.63
66213;SHT31;53015;50.046;8.238;2023-02-22T01:30:24;4.59;91.72
66213;SHT31;53015;50.046;8.238;2023-02-22T01:32:49;4.49;92.30
66213;SHT31;53015;50.046;8.238;2023-02-22T01:35:19;4.56;92.41
66213;SHT31;53015;50.046;8.238;2023-02-22T01:37:45;4.77;91.63
66213;SHT31;53015;50.046;8.238;2023-02-22T01:40:16;4.83;91.11
66213;SHT31;53015;50.046;8.238;2023-02-22T01:42:43;4.60;91.29
66213;SHT31;53015;50.046;8.238;2023-02-22T01:45:42;4.50;92.09
66213;SHT31;53015;50.046;8.238;2023-02-22T01:48:12;4.39;92.53
66213;SHT31;53015;50.046;8.238;2023-02-22T01:50:41;4.50;92.39
66213;SHT31;53015;50.046;8.238;2023-02-22T01:53:10;4.44;92.26
66213;SHT31;53015;50.046;8.238;2023-02-22T01:55:37;4.41;92.01
66213;SHT31;53015;50.046;8.238;2023-02-22T01:58:03;4.29;92.35
66213;SHT31;53015;50.046;8.238;2023-02-22T02:00:30;4.29;92.35
66213;SHT31;53015;50.046;8.238;2023-02-22T02:02:58;4.27;91.80
66213;SHT31;53015;50.046;8.238;2023-02-22T02:05:26;4.28;91.91
66213;SHT31;53015;50.046;8.238;2023-02-22T02:07:53;4.35;91.91
66213;SHT31;53015;50.046;8.238;2023-02-22T02:10:18;4.59;91.12
66213;SHT31;53015;50.046;8.238;2023-02-22T02:12:46;4.52;90.72
66213;SHT31;53015;50.046;8.238;2023-02-22T02:15:18;4.44;91.10
66213;SHT31;53015;50.046;8.238;2023-02-22T02:17:44;4.39;91.80
66213;SHT31;53015;50.046;8.238;2023-02-22T02:20:16;4.31;92.11
66213;SHT31;53015;50.046;8.238;2023-02-22T02:22:52;4.21;93.09
66213;SHT31;53015;50.046;8.238;2023-02-22T02:25:42;4.42;92.30
66213;SHT31;53015;50.046;8.238;2023-02-22T02:31:49;4.18;92.42
66213;SHT31;53015;50.046;8.238;2023-02-22T02:34:21;4.25;92.53
66213;SHT31;53015;50.046;8.238;2023-02-22T02:36:55;4.07;92.35
66213;SHT31;53015;50.046;8.238;2023-02-22T02:39:26;4.14;92.67
66213;SHT31;53015;50.046;8.238;2023-02-22T02:41:53;4.02;92.37
66213;SHT31;53015;50.046;8.238;2023-02-22T02:44:22;3.95;92.69
66213;SHT31;53015;50.046;8.238;2023-02-22T02:46:54;3.98;92.51
66213;SHT31;53015;50.046;8.238;2023-02-22T02:49:26;3.89;92.58
66213;SHT31;53015;50.046;8.238;2023-02-22T02:51:53;3.98;92.36
66213;SHT31;53015;50.046;8.238;2023-02-22T02:54:21;4.12;92.12
66213;SHT31;53015;50.046;8.238;2023-02-22T02:56:46;4.08;92.18
66213;SHT31;53015;50.046;8.238;2023-02-22T02:59:24;4.05;92.27
66213;SHT31;53015;50.046;8.238;2023-02-22T03:02:00;4.14;91.96
66213;SHT31;53015;50.046;8.238;2023-02-22T03:04:36;4.02;91.97
66213;SHT31;53015;50.046;8.238;2023-02-22T03:07:16;3.95;92.21
66213;SHT31;53015;50.046;8.238;2023-02-22T03:09:54;4.01;92.18
66213;SHT31;53015;50.046;8.238;2023-02-22T03:12:31;4.14;92.11
66213;SHT31;53015;50.046;8.238;2023-02-22T03:15:08;4.05;91.83
66213;SHT31;53015;50.046;8.238;2023-02-22T03:17:43;4.11;91.64
66213;SHT31;53015;50.046;8.238;2023-02-22T03:20:12;4.18;91.53
66213;SHT31;53015;50.046;8.238;2023-02-22T03:22:44;4.02;91.61
66213;SHT31;53015;50.046;8.238;2023-02-22T03:25:14;4.24;91.49
66213;SHT31;53015;50.046;8.238;2023-02-22T03:27:43;4.10;91.60
66213;SHT31;53015;50.046;8.238;2023-02-22T03:30:12;4.08;92.08
66213;SHT31;53015;50.046;8.238;2023-02-22T03:32:44;4.05;92.69
66213;SHT31;53015;50.046;8.238;2023-02-22T03:35:13;4.07;93.24
66213;SHT31;53015;50.046;8.238;2023-02-22T03:37:42;3.95;93.51
66213;SHT31;53015;50.046;8.238;2023-02-22T03:40:13;3.90;93.88
66213;SHT31;53015;50.046;8.238;2023-02-22T03:42:40;3.94;93.69
66213;SHT31;53015;50.046;8.238;2023-02-22T03:45:08;3.80;93.64
66213;SHT31;53015;50.046;8.238;2023-02-22T03:47:39;3.69;93.78
66213;SHT31;53015;50.046;8.238;2023-02-22T03:50:10;3.72;93.96
66213;SHT31;53015;50.046;8.238;2023-02-22T03:52:36;3.60;94.10
66213;SHT31;53015;50.046;8.238;2023-02-22T03:55:03;3.60;94.30
66213;SHT31;53015;50.046;8.238;2023-02-22T03:57:32;3.58;94.25
66213;SHT31;53015;50.046;8.238;2023-02-22T03:59:59;3.66;94.34
66213;SHT31;53015;50.046;8.238;2023-02-22T04:02:25;3.72;94.72
66213;SHT31;53015;50.046;8.238;2023-02-22T04:04:50;3.89;94.43
66213;SHT31;53015;50.046;8.238;2023-02-22T04:07:17;3.76;93.88
66213;SHT31;53015;50.046;8.238;2023-02-22T04:09:43;3.95;93.24
66213;SHT31;53015;50.046;8.238;2023-02-22T04:12:08;4.08;93.98
66213;SHT31;53015;50.046;8.238;2023-02-22T04:14:34;4.00;93.09
66213;SHT31;53015;50.046;8.238;2023-02-22T04:16:59;3.89;93.25
66213;SHT31;53015;50.046;8.238;2023-02-22T04:19:24;3.90;94.03
66213;SHT31;53015;50.046;8.238;2023-02-22T04:21:50;3.87;94.40
66213;SHT31;53015;50.046;8.238;2023-02-22T04:24:16;3.93;94.89
66213;SHT31;53015;50.046;8.238;2023-02-22T04:26:42;3.80;95.20
66213;SHT31;53015;50.046;8.238;2023-02-22T04:29:07;3.45;96.54
66213;SHT31;53015;50.046;8.238;2023-02-22T04:31:33;3.46;96.95
66213;SHT31;53015;50.046;8.238;2023-02-22T04:33:58;3.51;96.54
66213;SHT31;53015;50.046;8.238;2023-02-22T04:36:24;3.52;96.11
66213;SHT31;53015;50.046;8.238;2023-02-22T04:38:50;3.58;95.74
66213;SHT31;53015;50.046;8.238;2023-02-22T04:41:16;3.48;95.50
66213;SHT31;53015;50.046;8.238;2023-02-22T04:43:42;3.42;95.62
66213;SHT31;53015;50.046;8.238;2023-02-22T04:46:07;3.58;95.42
66213;SHT31;53015;50.046;8.238;2023-02-22T04:48:33;3.64;94.92
66213;SHT31;53015;50.046;8.238;2023-02-22T04:50:58;3.77;94.51
66213;SHT31;53015;50.046;8.238;2023-02-22T04:53:24;3.64;94.06
66213;SHT31;53015;50.046;8.238;2023-02-22T04:55:49;3.51;94.08
66213;SHT31;53015;50.046;8.238;2023-02-22T04:58:16;3.46;95.19
66213;SHT31;53015;50.046;8.238;2023-02-22T05:00:41;3.43;95.49
66213;SHT31;53015;50.046;8.238;2023-02-22T05:03:07;3.38;95.71
66213;SHT31;53015;50.046;8.238;2023-02-22T05:05:32;3.40;95.81
66213;SHT31;53015;50.046;8.238;2023-02-22T05:07:58;3.40;95.55
66213;SHT31;53015;50.046;8.238;2023-02-22T05:10:23;3.48;95.07
66213;SHT31;53015;50.046;8.238;2023-02-22T05:12:49;3.39;94.77
66213;SHT31;53015;50.046;8.238;2023-02-22T05:15:16;3.29;95.09
66213;SHT31;53015;50.046;8.238;2023-02-22T05:17:42;3.21;95.29
66213;SHT31;53015;50.046;8.238;2023-02-22T05:20:15;3.29;95.12
66213;SHT31;53015;50.046;8.238;2023-02-22T05:22:41;3.31;95.02
66213;SHT31;53015;50.046;8.238;2023-02-22T05:25:07;3.43;94.75
66213;SHT31;53015;50.046;8.238;2023-02-22T05:27:33;3.63;94.00
66213;SHT31;53015;50.046;8.238;2023-02-22T05:29:58;3.53;93.29
66213;SHT31;53015;50.046;8.238;2023-02-22T05:32:24;3.49;93.33
66213;SHT31;53015;50.046;8.238;2023-02-22T05:34:50;3.35;93.42
66213;SHT31;53015;50.046;8.238;2023-02-22T05:37:15;3.45;93.71
66213;SHT31;53015;50.046;8.238;2023-02-22T05:39:40;3.39;93.58
66213;SHT31;53015;50.046;8.238;2023-02-22T05:42:06;3.31;93.56
66213;SHT31;53015;50.046;8.238;2023-02-22T05:44:31;3.32;93.21
66213;SHT31;53015;50.046;8.238;2023-02-22T05:46:57;3.22;93.65
66213;SHT31;53015;50.046;8.238;2023-02-22T05:49:23;3.24;93.45
66213;SHT31;53015;50.046;8.238;2023-02-22T05:51:49;3.15;93.67
66213;SHT31;53015;50.046;8.238;2023-02-22T05:54:14;3.11;94.03
66213;SHT31;53015;50.046;8.238;2023-02-22T05:56:40;3.08;93.89
66213;SHT31;53015;50.046;8.238;2023-02-22T05:59:05;3.11;93.90
66213;SHT31;53015;50.046;8.238;2023-02-22T06:01:31;3.15;93.67
66213;SHT31;53015;50.046;8.238;2023-02-22T06:03:57;3.18;93.43
66213;SHT31;53015;50.046;8.238;2023-02-22T06:06:23;3.11;93.05
66213;SHT31;53015;50.046;8.238;2023-02-22T06:08:48;3.24;92.74
66213;SHT31;53015;50.046;8.238;2023-02-22T06:11:14;3.18;92.54
66213;SHT31;53015;50.046;8.238;2023-02-22T06:13:39;3.18;92.36
66213;SHT31;53015;50.046;8.238;2023-02-22T06:16:05;3.24;92.20
66213;SHT31;53015;50.046;8.238;2023-02-22T06:18:32;3.22;92.08
66213;SHT31;53015;50.046;8.238;2023-02-22T06:20:57;3.17;92.40
66213;SHT31;53015;50.046;8.238;2023-02-22T06:23:24;3.18;92.59
66213;SHT31;53015;50.046;8.238;2023-02-22T06:25:50;3.11;92.66
66213;SHT31;53015;50.046;8.238;2023-02-22T06:28:15;3.03;92.92
66213;SHT31;53015;50.046;8.238;2023-02-22T06:30:41;3.07;93.02
66213;SHT31;53015;50.046;8.238;2023-02-22T06:33:06;2.96;93.31
66213;SHT31;53015;50.046;8.238;2023-02-22T06:35:32;3.03;92.98
66213;SHT31;53015;50.046;8.238;2023-02-22T06:37:57;3.00;93.21
66213;SHT31;53015;50.046;8.238;2023-02-22T06:40:24;3.04;93.25
66213;SHT31;53015;50.046;8.238;2023-02-22T06:42:49;3.03;95.09
66213;SHT31;53015;50.046;8.238;2023-02-22T06:45:16;3.09;95.76
66213;SHT31;53015;50.046;8.238;2023-02-22T06:47:41;3.12;95.94
66213;SHT31;53015;50.046;8.238;2023-02-22T06:50:17;3.26;96.22
66213;SHT31;53015;50.046;8.238;2023-02-22T06:52:43;3.22;96.18
66213;SHT31;53015;50.046;8.238;2023-02-22T06:55:08;3.28;96.45
66213;SHT31;53015;50.046;8.238;2023-02-22T06:57:35;3.28;96.46
66213;SHT31;53015;50.046;8.238;2023-02-22T07:00:00;3.28;96.59
66213;SHT31;53015;50.046;8.238;2023-02-22T07:02:25;3.24;96.71
66213;SHT31;53015;50.046;8.238;2023-02-22T07:04:51;3.15;96.99
66213;SHT31;53015;50.046;8.238;2023-02-22T07:07:17;3.24;97.22
66213;SHT31;53015;50.046;8.238;2023-02-22T07:09:45;3.31;97.09
66213;SHT31;53015;50.046;8.238;2023-02-22T07:12:10;3.35;97.19
66213;SHT31;53015;50.046;8.238;2023-02-22T07:14:36;3.40;96.92
66213;SHT31;53015;50.046;8.238;2023-02-22T07:17:02;3.36;96.68
66213;SHT31;53015;50.046;8.238;2023-02-22T07:19:27;3.42;96.80
66213;SHT31;53015;50.046;8.238;2023-02-22T07:21:53;3.46;96.83
66213;SHT31;53015;50.046;8.238;2023-02-22T07:24:18;3.60;96.54
66213;SHT31;53015;50.046;8.238;2023-02-22T07:26:44;3.62;96.44
66213;SHT31;53015;50.046;8.238;2023-02-22T07:29:09;3.51;96.62
66213;SHT31;53015;50.046;8.238;2023-02-22T07:31:36;3.52;96.72
66213;SHT31;53015;50.046;8.238;2023-02-22T07:34:02;3.59;96.62
66213;SHT31;53015;50.046;8.238;2023-02-22T07:36:27;3.62;96.28
66213;SHT31;53015;50.046;8.238;2023-02-22T07:38:53;3.76;96.29
66213;SHT31;53015;50.046;8.238;2023-02-22T07:41:19;3.91;95.45
66213;SHT31;53015;50.046;8.238;2023-02-22T07:43:44;4.01;95.77
66213;SHT31;53015;50.046;8.238;2023-02-22T07:46:10;4.05;95.16
66213;SHT31;53015;50.046;8.238;2023-02-22T07:48:36;3.89;95.34
66213;SHT31;53015;50.046;8.238;2023-02-22T07:51:01;4.02;95.48
66213;SHT31;53015;50.046;8.238;2023-02-22T07:53:28;4.27;94.77
66213;SHT31;53015;50.046;8.238;2023-02-22T07:55:55;4.17;94.54
66213;SHT31;53015;50.046;8.238;2023-02-22T07:58:26;4.14;95.11
66213;SHT31;53015;50.046;8.238;2023-02-22T08:00:52;4.25;94.41
66213;SHT31;53015;50.046;8.238;2023-02-22T08:03:19;4.29;93.78
66213;SHT31;53015;50.046;8.238;2023-02-22T08:05:47;4.28;93.70
66213;SHT31;53015;50.046;8.238;2023-02-22T08:08:13;4.36;93.76
66213;SHT31;53015;50.046;8.238;2023-02-22T08:10:39;4.41;93.82
66213;SHT31;53015;50.046;8.238;2023-02-22T08:13:05;4.07;93.96
66213;SHT31;53015;50.046;8.238;2023-02-22T08:15:32;4.27;94.29
66213;SHT31;53015;50.046;8.238;2023-02-22T08:17:59;4.22;94.90
66213;SHT31;53015;50.046;8.238;2023-02-22T08:20:25;4.48;93.61
66213;SHT31;53015;50.046;8.238;2023-02-22T08:22:51;4.67;92.80
66213;SHT31;53015;50.046;8.238;2023-02-22T08:25:19;4.83;92.45
66213;SHT31;53015;50.046;8.238;2023-02-22T08:27:44;4.84;92.61
66213;SHT31;53015;50.046;8.238;2023-02-22T08:30:13;5.08;91.88
66213;SHT31;53015;50.046;8.238;2023-02-22T08:32:38;5.18;91.45
66213;SHT31;53015;50.046;8.238;2023-02-22T08:35:05;5.41;91.24
66213;SHT31;53015;50.046;8.238;2023-02-22T08:37:30;5.67;90.23
66213;SHT31;53015;50.046;8.238;2023-02-22T08:39:56;5.74;90.33
66213;SHT31;53015;50.046;8.238;2023-02-22T08:42:22;5.73;91.52
66213;SHT31;53015;50.046;8.238;2023-02-22T08:44:47;5.77;91.64
66213;SHT31;53015;50.046;8.238;2023-02-22T08:47:13;6.14;90.59
66213;SHT31;53015;50.046;8.238;2023-02-22T08:49:38;5.98;90.55
66213;SHT31;53015;50.046;8.238;2023-02-22T08:52:04;6.00;90.75
66213;SHT31;53015;50.046;8.238;2023-02-22T08:54:29;6.31;90.11
66213;SHT31;53015;50.046;8.238;2023-02-22T08:56:55;6.63;90.11
66213;SHT31;53015;50.046;8.238;2023-02-22T08:59:21;6.68;88.89
66213;SHT31;53015;50.046;8.238;2023-02-22T09:01:46;6.63;89.63
66213;SHT31;53015;50.046;8.238;2023-02-22T09:04:12;6.87;89.48
66213;SHT31;53015;50.046;8.238;2023-02-22T09:06:39;7.00;88.55
66213;SHT31;53015;50.046;8.238;2023-02-22T09:09:04;6.94;88.56
66213;SHT31;53015;50.046;8.238;2023-02-22T09:11:30;6.96;89.16
66213;SHT31;53015;50.046;8.238;2023-02-22T09:13:56;6.79;89.06
66213;SHT31;53015;50.046;8.238;2023-02-22T09:16:21;6.97;88.99
66213;SHT31;53015;50.046;8.238;2023-02-22T09:18:47;7.01;89.07
66213;SHT31;53015;50.046;8.238;2023-02-22T09:21:12;7.14;89.07
66213;SHT31;53015;50.046;8.238;2023-02-22T09:23:38;7.29;88.74
66213;SHT31;53015;50.046;8.238;2023-02-22T09:26:03;7.44;88.69
66213;SHT31;53015;50.046;8.238;2023-02-22T09:28:31;7.65;86.69
66213;SHT31;53015;50.046;8.238;2023-02-22T09:30:57;7.51;87.94
66213;SHT31;53015;50.046;8.238;2023-02-22T09:33:23;7.63;87.14
66213;SHT31;53015;50.046;8.238;2023-02-22T09:35:49;7.63;87.83
66213;SHT31;53015;50.046;8.238;2023-02-22T09:38:16;7.76;87.74
66213;SHT31;53015;50.046;8.238;2023-02-22T09:40:45;7.94;87.50
66213;SHT31;53015;50.046;8.238;2023-02-22T09:43:26;8.17;87.12
66213;SHT31;53015;50.046;8.238;2023-02-22T09:46:06;8.28;86.55
66213;SHT31;53015;50.046;8.238;2023-02-22T09:48:34;8.18;86.55
66213;SHT31;53015;50.046;8.238;2023-02-22T09:51:02;8.25;86.02
66213;SHT31;53015;50.046;8.238;2023-02-22T09:53:35;8.42;86.22
66213;SHT31;53015;50.046;8.238;2023-02-22T09:56:06;8.46;85.98
66213;SHT31;53015;50.046;8.238;2023-02-22T09:58:34;8.66;85.91
66213;SHT31;53015;50.046;8.238;2023-02-22T10:01:10;8.69;85.72
66213;SHT31;53015;50.046;8.238;2023-02-22T10:03:46;8.77;85.73
66213;SHT31;53015;50.046;8.238;2023-02-22T10:06:14;8.94;85.56
66213;SHT31;53015;50.046;8.238;2023-02-22T10:08:41;9.07;85.62
66213;SHT31;53015;50.046;8.238;2023-02-22T10:11:16;8.99;85.44
66213;SHT31;53015;50.046;8.238;2023-02-22T10:13:51;9.07;85.69
66213;SHT31;53015;50.046;8.238;2023-02-22T10:16:25;9.01;85.87
66213;SHT31;53015;50.046;8.238;2023-02-22T10:19:06;9.00;85.94
66213;SHT31;53015;50.046;8.238;2023-02-22T10:21:46;8.88;86.02
66213;SHT31;53015;50.046;8.238;2023-02-22T10:24:23;8.99;86.24
66213;SHT31;53015;50.046;8.238;2023-02-22T10:26:55;9.03;86.40
66213;SHT31;53015;50.046;8.238;2023-02-22T10:29:28;9.21;86.57
66213;SHT31;53015;50.046;8.238;2023-02-22T10:31:59;9.24;86.11
66213;SHT31;53015;50.046;8.238;2023-02-22T10:34:29;9.20;86.41
66213;SHT31;53015;50.046;8.238;2023-02-22T10:36:59;9.20;86.35
66213;SHT31;53015;50.046;8.238;2023-02-22T10:39:30;9.00;86.88
66213;SHT31;53015;50.046;8.238;2023-02-22T10:41:57;9.15;86.62
66213;SHT31;53015;50.046;8.238;2023-02-22T10:44:24;9.14;86.97
66213;SHT31;53015;50.046;8.238;2023-02-22T10:46:51;9.21;86.80
66213;SHT31;53015;50.046;8.238;2023-02-22T10:49:20;9.13;87.10
66213;SHT31;53015;50.046;8.238;2023-02-22T10:51:47;9.39;86.64
66213;SHT31;53015;50.046;8.238;2023-02-22T10:54:24;9.07;87.23
66213;SHT31;53015;50.046;8.238;2023-02-22T10:56:52;9.00;87.68
66213;SHT31;53015;50.046;8.238;2023-02-22T10:59:26;9.13;87.45
66213;SHT31;53015;50.046;8.238;2023-02-22T11:01:52;9.28;86.91
66213;SHT31;53015;50.046;8.238;2023-02-22T11:04:19;9.45;87.02
66213;SHT31;53015;50.046;8.238;2023-02-22T11:06:47;9.39;86.60
66213;SHT31;53015;50.046;8.238;2023-02-22T11:09:14;9.41;86.86
66213;SHT31;53015;50.046;8.238;2023-02-22T11:11:42;9.34;87.32
66213;SHT31;53015;50.046;8.238;2023-02-22T11:14:09;9.45;86.84
66213;SHT31;53015;50.046;8.238;2023-02-22T11:16:37;9.72;86.57
66213;SHT31;53015;50.046;8.238;2023-02-22T11:19:16;9.78;85.53
66213;SHT31;53015;50.046;8.238;2023-02-22T11:21:43;9.78;85.65
66213;SHT31;53015;50.046;8.238;2023-02-22T11:24:10;9.78;85.35
66213;SHT31;53015;50.046;8.238;2023-02-22T11:26:40;9.76;85.33
66213;SHT31;53015;50.046;8.238;2023-02-22T11:29:11;9.73;85.30
66213;SHT31;53015;50.046;8.238;2023-02-22T11:31:41;9.90;85.21
66213;SHT31;53015;50.046;8.238;2023-02-22T11:34:24;10.03;84.65
66213;SHT31;53015;50.046;8.238;2023-02-22T11:36:51;10.08;83.77
66213;SHT31;53015;50.046;8.238;2023-02-22T11:39:24;9.96;84.20
66213;SHT31;53015;50.046;8.238;2023-02-22T11:41:50;9.97;84.66
66213;SHT31;53015;50.046;8.238;2023-02-22T11:44:23;9.91;84.43
66213;SHT31;53015;50.046;8.238;2023-02-22T11:46:49;9.78;84.47
66213;SHT31;53015;50.046;8.238;2023-02-22T11:49:16;9.93;84.37
66213;SHT31;53015;50.046;8.238;2023-02-22T11:51:51;9.94;83.81
66213;SHT31;53015;50.046;8.238;2023-02-22T11:54:28;9.90;84.84
66213;SHT31;53015;50.046;8.238;2023-02-22T11:57:07;9.94;84.39
66213;SHT31;53015;50.046;8.238;2023-02-22T11:59:37;9.79;84.89
66213;SHT31;53015;50.046;8.238;2023-02-22T12:02:23;9.80;84.72
66213;SHT31;53015;50.046;8.238;2023-02-22T12:05:10;9.93;84.74
66213;SHT31;53015;50.046;8.238;2023-02-22T12:07:47;10.00;84.07
66213;SHT31;53015;50.046;8.238;2023-02-22T12:10:19;9.94;83.69
66213;SHT31;53015;50.046;8.238;2023-02-22T12:13:02;10.10;83.51
66213;SHT31;53015;50.046;8.238;2023-02-22T12:15:34;10.27;83.21
66213;SHT31;53015;50.046;8.238;2023-02-22T12:18:07;10.28;82.77
66213;SHT31;53015;50.046;8.238;2023-02-22T12:20:39;10.25;82.56
66213;SHT31;53015;50.046;8.238;2023-02-22T12:23:16;10.42;82.51
66213;SHT31;53015;50.046;8.238;2023-02-22T12:25:51;10.55;81.36
66213;SHT31;53015;50.046;8.238;2023-02-22T12:28:21;10.71;80.67
66213;SHT31;53015;50.046;8.238;2023-02-22T12:30:51;10.76;80.95
66213;SHT31;53015;50.046;8.238;2023-02-22T12:33:24;10.65;80.94
66213;SHT31;53015;50.046;8.238;2023-02-22T12:35:52;10.80;80.73
66213;SHT31;53015;50.046;8.238;2023-02-22T12:38:23;11.13;80.76
66213;SHT31;53015;50.046;8.238;2023-02-22T12:40:55;11.34;79.35
66213;SHT31;53015;50.046;8.238;2023-02-22T12:43:26;11.50;79.59
66213;SHT31;53015;50.046;8.238;2023-02-22T12:45:58;11.85;78.46
66213;SHT31;53015;50.046;8.238;2023-02-22T12:48:32;12.07;77.01
66213;SHT31;53015;50.046;8.238;2023-02-22T12:51:14;12.31;76.99
66213;SHT31;53015;50.046;8.238;2023-02-22T12:53:44;12.45;74.61
66213;SHT31;53015;50.046;8.238;2023-02-22T12:56:16;12.55;74.85
66213;SHT31;53015;50.046;8.238;2023-02-22T12:58:45;12.41;75.39
66213;SHT31;53015;50.046;8.238;2023-02-22T13:01:15;12.34;75.16
66213;SHT31;53015;50.046;8.238;2023-02-22T13:03:42;12.33;75.26
66213;SHT31;53015;50.046;8.238;2023-02-22T13:06:26;12.41;76.06
66213;SHT31;53015;50.046;8.238;2023-02-22T13:09:06;12.37;75.04
66213;SHT31;53015;50.046;8.238;2023-02-22T13:11:38;12.31;75.38
66213;SHT31;53015;50.046;8.238;2023-02-22T13:14:15;12.55;75.17
66213;SHT31;53015;50.046;8.238;2023-02-22T13:16:53;12.71;74.98
66213;SHT31;53015;50.046;8.238;2023-02-22T13:19:33;12.75;75.03
66213;SHT31;53015;50.046;8.238;2023-02-22T13:22:03;12.55;74.86
66213;SHT31;53015;50.046;8.238;2023-02-22T13:24:36;12.62;74.31
66213;SHT31;53015;50.046;8.238;2023-02-22T13:27:10;12.54;73.97
66213;SHT31;53015;50.046;8.238;2023-02-22T13:29:38;12.54;74.81
66213;SHT31;53015;50.046;8.238;2023-02-22T13:32:23;12.58;74.64
66213;SHT31;53015;50.046;8.238;2023-02-22T13:35:11;12.49;74.65
66213;SHT31;53015;50.046;8.238;2023-02-22T13:37:53;12.62;74.20
66213;SHT31;53015;50.046;8.238;2023-02-22T13:40:39;12.47;75.16
66213;SHT31;53015;50.046;8.238;2023-02-22T13:43:42;12.45;73.85
66213;SHT31;53015;50.046;8.238;2023-02-22T13:46:30;12.33;74.40
66213;SHT31;53015;50.046;8.238;2023-02-22T13:49:35;12.19;75.96
66213;SHT31;53015;50.046;8.238;2023-02-22T13:52:05;12.23;76.03
66213;SHT31;53015;50.046;8.238;2023-02-22T13:54:37;12.06;76.67
66213;SHT31;53015;50.046;8.238;2023-02-22T13:57:16;12.23;75.45
66213;SHT31;53015;50.046;8.238;2023-02-22T13:59:42;12.21;76.44
66213;SHT31;53015;50.046;8.238;2023-02-22T14:02:31;12.26;75.56
66213;SHT31;53015;50.046;8.238;2023-02-22T14:04:56;12.27;75.59
66213;SHT31;53015;50.046;8.238;2023-02-22T14:07:55;12.23;75.25
66213;SHT31;53015;50.046;8.238;2023-02-22T14:13:20;12.20;75.86
66213;SHT31;53015;50.046;8.238;2023-02-22T14:16:18;12.27;75.18
66213;SHT31;53015;50.046;8.238;2023-02-22T14:18:46;12.27;74.98
66213;SHT31;53015;50.046;8.238;2023-02-22T14:21:12;12.31;75.23
66213;SHT31;53015;50.046;8.238;2023-02-22T14:23:39;12.31;75.47
66213;SHT31;53015;50.046;8.238;2023-02-22T14:26:11;12.38;75.98
66213;SHT31;53015;50.046;8.238;2023-02-22T14:28:42;12.49;75.40
66213;SHT31;53015;50.046;8.238;2023-02-22T14:31:12;12.58;75.05
66213;SHT31;53015;50.046;8.238;2023-02-22T14:36:33;12.51;75.18
66213;SHT31;53015;50.046;8.238;2023-02-22T14:39:14;12.58;74.83
66213;SHT31;53015;50.046;8.238;2023-02-22T14:41:44;12.38;76.13
66213;SHT31;53015;50.046;8.238;2023-02-22T14:44:12;12.51;75.90
66213;SHT31;53015;50.046;8.238;2023-02-22T14:46:40;12.54;75.10
66213;SHT31;53015;50.046;8.238;2023-02-22T14:49:11;12.61;75.12
66213;SHT31;53015;50.046;8.238;2023-02-22T14:51:40;12.51;76.26
66213;SHT31;53015;50.046;8.238;2023-02-22T14:54:11;12.42;75.20
66213;SHT31;53015;50.046;8.238;2023-02-22T14:56:41;12.45;75.33
66213;SHT31;53015;50.046;8.238;2023-02-22T14:59:15;12.67;75.77
66213;SHT31;53015;50.046;8.238;2023-02-22T15:01:41;12.62;75.60
66213;SHT31;53015;50.046;8.238;2023-02-22T15:04:18;12.67;74.88
66213;SHT31;53015;50.046;8.238;2023-02-22T15:06:44;12.57;74.84
66213;SHT31;53015;50.046;8.238;2023-02-22T15:09:12;12.54;75.51
66213;SHT31;53015;50.046;8.238;2023-02-22T15:11:38;12.33;74.95
66213;SHT31;53015;50.046;8.238;2023-02-22T15:14:15;12.21;75.33
66213;SHT31;53015;50.046;8.238;2023-02-22T15:16:46;12.26;76.06
66213;SHT31;53015;50.046;8.238;2023-02-22T15:19:13;12.31;75.29
66213;SHT31;53015;50.046;8.238;2023-02-22T15:21:44;12.21;75.79
66213;SHT31;53015;50.046;8.238;2023-02-22T15:24:20;12.29;75.70
66213;SHT31;53015;50.046;8.238;2023-02-22T15:26:46;12.24;76.24
66213;SHT31;53015;50.046;8.238;2023-02-22T15:29:14;12.19;76.22
66213;SHT31;53015;50.046;8.238;2023-02-22T15:31:41;12.03;77.14
66213;SHT31;53015;50.046;8.238;2023-02-22T15:34:17;12.07;76.68
66213;SHT31;53015;50.046;8.238;2023-02-22T15:36:45;12.03;76.31
66213;SHT31;53015;50.046;8.238;2023-02-22T15:39:18;11.90;76.78
66213;SHT31;53015;50.046;8.238;2023-02-22T15:41:43;11.86;77.04
66213;SHT31;53015;50.046;8.238;2023-02-22T15:44:09;11.81;77.48
66213;SHT31;53015;50.046;8.238;2023-02-22T15:46:36;11.85;77.52
66213;SHT31;53015;50.046;8.238;2023-02-22T15:49:07;11.73;77.85
66213;SHT31;53015;50.046;8.238;2023-02-22T15:51:42;11.69;80.07
66213;SHT31;53015;50.046;8.238;2023-02-22T15:54:08;11.59;79.63
66213;SHT31;53015;50.046;8.238;2023-02-22T15:56:34;11.50;80.23
66213;SHT31;53015;50.046;8.238;2023-02-22T15:59:03;11.51;80.04
66213;SHT31;53015;50.046;8.238;2023-02-22T16:01:36;11.44;79.20
66213;SHT31;53015;50.046;8.238;2023-02-22T16:04:02;11.42;79.68